createdAt,value
2023-03-17T00:00:11.061Z,6.30
2023-03-17T00:01:10.986Z,7.10
2023-03-17T00:02:10.954Z,7.20
2023-03-17T00:03:10.844Z,6.80
2023-03-17T00:04:10.748Z,6.40
2023-03-17T00:05:10.737Z,6.80
2023-03-17T00:06:10.673Z,6.30
2023-03-17T00:07:10.584Z,6.40
2023-03-17T00:08:10.544Z,6.30
2023-03-17T00:09:10.493Z,5.90
2023-03-17T00:10:10.397Z,6.60
2023-03-17T00:11:10.333Z,6.70
2023-03-17T00:12:10.297Z,6.90
2023-03-17T00:13:10.230Z,7.00
2023-03-17T00:14:10.177Z,6.00
2023-03-17T00:15:10.069Z,7.00
2023-03-17T00:16:10.123Z,6.20
2023-03-17T00:17:09.981Z,6.70
2023-03-17T00:18:09.926Z,6.40
2023-03-17T00:19:09.829Z,7.00
2023-03-17T00:20:09.803Z,6.70
2023-03-17T00:21:09.720Z,6.40
2023-03-17T00:22:09.640Z,7.50
2023-03-17T00:23:09.584Z,6.80
2023-03-17T00:24:09.545Z,6.70
2023-03-17T00:25:09.453Z,6.40
2023-03-17T00:26:09.390Z,7.00
2023-03-17T00:27:09.374Z,6.90
2023-03-17T00:28:09.289Z,7.50
2023-03-17T00:29:09.204Z,6.40
2023-03-17T00:30:09.139Z,6.70
2023-03-17T00:31:09.108Z,6.90
2023-03-17T00:32:09.016Z,7.20
2023-03-17T00:33:08.973Z,7.40
2023-03-17T00:34:08.889Z,7.40
2023-03-17T00:35:08.825Z,6.70
2023-03-17T00:36:08.765Z,7.20
2023-03-17T00:37:08.736Z,7.20
2023-03-17T00:38:08.650Z,7.40
2023-03-17T00:39:29.557Z,6.90
2023-03-17T00:40:08.513Z,6.60
2023-03-17T00:41:08.451Z,6.90
2023-03-17T00:42:08.357Z,7.20
2023-03-17T00:43:08.352Z,7.40
2023-03-17T00:44:08.327Z,7.10
2023-03-17T00:45:08.201Z,7.20
2023-03-17T00:46:08.155Z,6.90
2023-03-17T00:47:08.096Z,7.30
2023-03-17T00:48:08.002Z,7.40
2023-03-17T00:49:07.919Z,7.00
2023-03-17T00:50:07.854Z,7.40
2023-03-17T00:51:07.797Z,7.70
2023-03-17T00:52:07.751Z,7.00
2023-03-17T00:53:07.720Z,7.10
2023-03-17T00:54:07.657Z,7.10
2023-03-17T00:55:07.539Z,7.30
2023-03-17T00:56:07.502Z,7.30
2023-03-17T00:57:28.404Z,7.20
2023-03-17T00:58:07.409Z,7.00
2023-03-17T00:59:07.316Z,7.60
2023-03-17T01:00:07.276Z,6.80
2023-03-17T01:01:07.239Z,7.50
2023-03-17T01:02:07.178Z,7.30
2023-03-17T01:03:07.081Z,6.80
2023-03-17T01:04:06.999Z,7.10
2023-03-17T01:05:07.131Z,8.10
2023-03-17T01:06:06.870Z,8.00
2023-03-17T01:07:06.817Z,7.80
2023-03-17T01:08:06.778Z,8.30
2023-03-17T01:09:06.683Z,7.70
2023-03-17T01:10:06.662Z,8.10
2023-03-17T01:11:06.567Z,7.80
2023-03-17T01:12:06.474Z,8.80
2023-03-17T01:13:06.434Z,8.50
2023-03-17T01:14:06.408Z,8.40
2023-03-17T01:16:45.401Z,8.80
2023-03-17T01:17:46.204Z,8.90
2023-03-17T01:18:46.265Z,8.50
2023-03-17T01:19:46.101Z,9.10
2023-03-17T01:20:46.031Z,8.20
2023-03-17T01:21:45.954Z,7.60
2023-03-17T01:22:45.886Z,8.20
2023-03-17T01:23:45.871Z,8.40
2023-03-17T01:24:45.808Z,7.80
2023-03-17T01:25:45.714Z,8.40
2023-03-17T01:26:45.665Z,8.10
2023-03-17T01:27:45.610Z,7.90
2023-03-17T01:28:45.534Z,8.10
2023-03-17T01:29:45.464Z,8.70
2023-03-17T01:30:45.451Z,8.60
2023-03-17T01:31:45.448Z,7.90
2023-03-17T01:32:45.276Z,8.70
2023-03-17T01:33:45.259Z,8.70
2023-03-17T01:34:45.149Z,8.70
2023-03-17T01:35:45.109Z,8.30
2023-03-17T01:36:45.055Z,8.00
2023-03-17T01:37:45.000Z,8.90
2023-03-17T01:38:44.901Z,8.60
2023-03-17T01:39:44.886Z,8.40
2023-03-17T01:40:44.763Z,8.10
2023-03-17T01:41:44.710Z,8.10
2023-03-17T01:42:44.643Z,8.80
2023-03-17T01:43:44.583Z,7.60
2023-03-17T01:44:44.522Z,8.60
2023-03-17T01:45:44.540Z,8.60
2023-03-17T01:46:44.402Z,8.10
2023-03-17T01:47:44.337Z,9.00
2023-03-17T01:48:44.299Z,8.50
2023-03-17T01:49:44.233Z,8.80
2023-03-17T01:50:44.131Z,10.40
2023-03-17T01:52:05.107Z,8.40
2023-03-17T01:52:44.018Z,8.70
2023-03-17T01:53:43.943Z,8.20
2023-03-17T01:54:43.872Z,8.50
2023-03-17T01:55:43.829Z,8.30
2023-03-17T01:56:43.813Z,8.40
2023-03-17T01:57:43.715Z,8.50
2023-03-17T01:58:43.638Z,9.10
2023-03-17T01:59:43.604Z,8.90
2023-03-17T02:00:43.534Z,8.60
2023-03-17T02:01:43.421Z,9.20
2023-03-17T02:02:43.420Z,8.10
2023-03-17T02:03:43.335Z,8.80
2023-03-17T02:04:43.268Z,9.50
2023-03-17T02:05:43.226Z,9.30
2023-03-17T02:06:56.889Z,9.60
2023-03-17T02:07:43.057Z,8.90
2023-03-17T02:08:43.012Z,8.50
2023-03-17T02:09:42.934Z,9.40
2023-03-17T02:10:42.862Z,9.90
2023-03-17T02:11:42.848Z,9.90
2023-03-17T02:12:42.758Z,9.80
2023-03-17T02:13:42.669Z,9.40
2023-03-17T02:14:42.651Z,9.60
2023-03-17T02:15:42.596Z,9.30
2023-03-17T02:16:42.561Z,9.60
2023-03-17T02:17:42.430Z,9.30
2023-03-17T02:18:42.388Z,9.40
2023-03-17T02:19:42.319Z,9.50
2023-03-17T02:20:42.258Z,10.00
2023-03-17T02:21:42.209Z,9.90
2023-03-17T02:22:42.128Z,9.60
2023-03-17T02:23:42.066Z,9.10
2023-03-17T02:24:42.030Z,9.70
2023-03-17T02:25:41.980Z,9.40
2023-03-17T02:26:41.880Z,9.60
2023-03-17T02:27:41.860Z,9.70
2023-03-17T02:28:41.787Z,10.20
2023-03-17T02:29:41.664Z,9.60
2023-03-17T02:30:41.698Z,9.50
2023-03-17T02:31:41.564Z,9.40
2023-03-17T02:32:41.532Z,9.00
2023-03-17T02:33:41.446Z,9.90
2023-03-17T02:34:41.418Z,10.10
2023-03-17T02:35:41.346Z,9.20
2023-03-17T02:36:41.341Z,10.20
2023-03-17T02:37:41.192Z,10.00
2023-03-17T02:38:41.102Z,10.20
2023-03-17T02:39:41.077Z,10.00
2023-03-17T02:40:41.039Z,10.10
2023-03-17T02:41:40.912Z,9.90
2023-03-17T02:42:40.901Z,10.90
2023-03-17T02:43:40.820Z,9.80
2023-03-17T02:44:40.755Z,9.80
2023-03-17T02:45:40.763Z,10.10
2023-03-17T02:46:40.662Z,10.00
2023-03-17T02:47:40.551Z,9.80
2023-03-17T02:48:40.565Z,10.00
2023-03-17T02:49:40.435Z,10.00
2023-03-17T02:50:40.353Z,9.40
2023-03-17T02:51:40.349Z,9.90
2023-03-17T02:52:40.220Z,9.70
2023-03-17T02:53:40.186Z,10.30
2023-03-17T02:54:40.098Z,10.20
2023-03-17T02:55:40.060Z,10.40
2023-03-17T02:56:40.023Z,9.60
2023-03-17T02:57:39.952Z,10.50
2023-03-17T02:58:39.843Z,10.10
2023-03-17T02:59:39.840Z,10.30
2023-03-17T03:00:39.772Z,9.50
2023-03-17T03:01:39.807Z,9.50
2023-03-17T03:02:39.664Z,9.70
2023-03-17T03:04:00.523Z,10.10
2023-03-17T03:04:39.480Z,9.20
2023-03-17T03:05:39.460Z,9.50
2023-03-17T03:06:39.377Z,9.80
2023-03-17T03:07:39.312Z,9.10
2023-03-17T03:08:39.241Z,10.10
2023-03-17T03:09:39.226Z,9.10
2023-03-17T03:10:39.148Z,9.40
2023-03-17T03:11:39.031Z,9.30
2023-03-17T03:12:39.017Z,9.20
2023-03-17T03:13:38.931Z,9.80
2023-03-17T03:14:38.871Z,9.40
2023-03-17T03:15:38.801Z,9.60
2023-03-17T03:16:38.744Z,10.10
2023-03-17T03:17:38.715Z,10.00
2023-03-17T03:18:38.611Z,9.60
2023-03-17T03:19:38.531Z,9.10
2023-03-17T03:20:38.486Z,9.50
2023-03-17T03:21:38.459Z,10.00
2023-03-17T03:22:38.362Z,9.50
2023-03-17T03:23:38.297Z,9.00
2023-03-17T03:24:38.244Z,9.90
2023-03-17T03:25:38.144Z,9.80
2023-03-17T03:26:38.136Z,9.40
2023-03-17T03:27:38.095Z,9.20
2023-03-17T03:28:37.961Z,9.40
2023-03-17T03:29:37.951Z,8.60
2023-03-17T03:30:37.893Z,8.60
2023-03-17T03:31:37.793Z,9.60
2023-03-17T03:32:37.859Z,9.50
2023-03-17T03:33:37.698Z,9.30
2023-03-17T03:34:37.589Z,9.60
2023-03-17T03:35:37.586Z,8.10
2023-03-17T03:36:37.499Z,9.30
2023-03-17T03:37:37.422Z,8.90
2023-03-17T03:38:37.329Z,9.00
2023-03-17T03:39:37.322Z,9.20
2023-03-17T03:40:37.218Z,9.70
2023-03-17T03:41:37.202Z,8.90
2023-03-17T03:42:37.105Z,9.00
2023-03-17T03:43:37.064Z,9.20
2023-03-17T03:44:36.964Z,9.00
2023-03-17T03:45:36.938Z,9.60
2023-03-17T03:46:36.960Z,9.00
2023-03-17T03:47:36.815Z,9.00
2023-03-17T03:48:36.712Z,8.90
2023-03-17T03:49:36.658Z,9.40
2023-03-17T03:50:36.622Z,9.20
2023-03-17T03:51:36.845Z,9.00
2023-03-17T03:52:36.452Z,8.80
2023-03-17T03:53:36.443Z,9.00
2023-03-17T03:54:36.348Z,8.80
2023-03-17T03:55:36.312Z,9.50
2023-03-17T03:56:36.259Z,8.90
2023-03-17T03:57:36.199Z,9.30
2023-03-17T03:58:36.111Z,9.10
2023-03-17T03:59:36.027Z,9.80
2023-03-17T04:00:35.982Z,9.70
2023-03-17T04:01:35.934Z,8.90
2023-03-17T04:02:35.937Z,9.60
2023-03-17T04:03:35.785Z,9.20
2023-03-17T04:04:35.739Z,9.30
2023-03-17T04:05:35.685Z,9.80
2023-03-17T04:06:35.563Z,9.30
2023-03-17T04:07:35.525Z,9.40
2023-03-17T04:08:35.488Z,9.80
2023-03-17T04:09:56.387Z,10.20
2023-03-17T04:10:35.315Z,9.90
2023-03-17T04:11:35.249Z,9.70
2023-03-17T04:12:35.221Z,9.40
2023-03-17T04:13:35.152Z,9.50
2023-03-17T04:14:35.059Z,9.70
2023-03-17T04:15:35.073Z,9.80
2023-03-17T04:16:34.982Z,9.10
2023-03-17T04:17:34.911Z,9.50
2023-03-17T04:18:34.854Z,9.20
2023-03-17T04:19:34.764Z,10.00
2023-03-17T04:20:34.727Z,9.80
2023-03-17T04:21:34.672Z,9.50
2023-03-17T04:22:34.566Z,10.80
2023-03-17T04:23:34.542Z,9.60
2023-03-17T04:24:34.441Z,10.30
2023-03-17T04:25:34.401Z,9.70
2023-03-17T04:26:34.338Z,9.10
2023-03-17T04:27:34.270Z,9.30
2023-03-17T04:28:34.231Z,9.80
2023-03-17T04:29:34.141Z,10.10
2023-03-17T04:30:34.056Z,9.10
2023-03-17T04:31:34.085Z,9.00
2023-03-17T04:32:33.967Z,9.90
2023-03-17T04:33:33.895Z,10.40
2023-03-17T04:34:33.822Z,10.00
2023-03-17T04:35:33.809Z,10.40
2023-03-17T04:36:33.743Z,9.60
2023-03-17T04:37:34.706Z,10.30
2023-03-17T04:38:33.597Z,10.10
2023-03-17T04:39:33.492Z,8.80
2023-03-17T04:40:33.529Z,9.60
2023-03-17T04:41:33.406Z,8.50
2023-03-17T04:42:33.344Z,8.40
2023-03-17T04:43:33.256Z,8.80
2023-03-17T04:44:33.225Z,8.60
2023-03-17T04:45:33.158Z,8.90
2023-03-17T04:46:33.092Z,8.70
2023-03-17T04:47:32.986Z,8.30
2023-03-17T04:48:32.966Z,8.80
2023-03-17T04:49:32.883Z,8.40
2023-03-17T04:50:33.400Z,8.90
2023-03-17T04:51:53.712Z,8.20
2023-03-17T04:52:32.702Z,8.30
2023-03-17T04:53:32.702Z,8.10
2023-03-17T04:54:32.602Z,8.10
2023-03-17T04:55:32.501Z,8.30
2023-03-17T04:56:32.457Z,8.30
2023-03-17T04:57:32.402Z,8.70
2023-03-17T04:58:32.301Z,8.40
2023-03-17T04:59:32.225Z,8.80
2023-03-17T05:00:32.399Z,8.60
2023-03-17T05:01:32.127Z,8.70
2023-03-17T05:02:32.069Z,8.40
2023-03-17T05:03:32.017Z,8.90
2023-03-17T05:04:32.533Z,8.40
2023-03-17T05:05:31.816Z,8.40
2023-03-17T05:06:31.808Z,8.60
2023-03-17T05:07:33.982Z,8.70
2023-03-17T05:08:31.632Z,9.10
2023-03-17T05:10:40.727Z,9.00
2023-03-17T05:11:41.709Z,8.80
2023-03-17T05:12:41.635Z,8.40
2023-03-17T05:13:41.556Z,8.80
2023-03-17T05:14:41.488Z,8.30
2023-03-17T05:15:41.418Z,8.40
2023-03-17T05:16:41.408Z,9.00
2023-03-17T05:17:41.333Z,8.50
2023-03-17T05:18:41.263Z,8.90
2023-03-17T05:19:41.149Z,8.80
2023-03-17T05:20:41.117Z,8.80
2023-03-17T05:21:41.064Z,9.00
2023-03-17T05:22:41.027Z,8.70
2023-03-17T05:23:40.925Z,7.90
2023-03-17T05:24:40.888Z,8.50
2023-03-17T05:25:40.824Z,8.80
2023-03-17T05:26:40.730Z,8.70
2023-03-17T05:27:40.710Z,8.60
2023-03-17T05:28:40.578Z,9.00
2023-03-17T05:29:40.546Z,8.00
2023-03-17T05:30:40.569Z,8.60
2023-03-17T05:31:40.443Z,9.10
2023-03-17T05:32:40.459Z,8.60
2023-03-17T05:33:40.304Z,9.30
2023-03-17T05:34:40.207Z,9.00
2023-03-17T05:35:40.212Z,8.20
2023-03-17T05:36:40.100Z,8.30
2023-03-17T05:37:40.080Z,9.10
2023-03-17T05:38:40.004Z,8.70
2023-03-17T05:39:39.993Z,8.00
2023-03-17T05:40:39.884Z,8.50
2023-03-17T05:41:39.795Z,9.00
2023-03-17T05:42:39.762Z,8.30
2023-03-17T05:43:39.666Z,7.60
2023-03-17T05:44:39.569Z,7.60
2023-03-17T05:46:00.589Z,8.50
2023-03-17T05:46:39.483Z,8.60
2023-03-17T05:47:39.413Z,8.70
2023-03-17T05:48:39.353Z,8.50
2023-03-17T05:49:39.258Z,9.40
2023-03-17T05:50:39.231Z,8.70
2023-03-17T05:51:39.202Z,9.60
2023-03-17T05:52:39.099Z,9.10
2023-03-17T05:53:39.006Z,8.70
2023-03-17T05:54:38.974Z,9.30
2023-03-17T05:55:38.969Z,9.40
2023-03-17T05:56:38.851Z,8.90
2023-03-17T05:57:38.816Z,9.10
2023-03-17T05:58:38.725Z,8.00
2023-03-17T05:59:38.633Z,9.20
2023-03-17T06:00:38.567Z,9.00
2023-03-17T06:01:38.531Z,9.00
2023-03-17T06:02:38.453Z,9.40
2023-03-17T06:03:59.410Z,8.80
2023-03-17T06:04:38.370Z,8.90
2023-03-17T06:05:38.308Z,8.50
2023-03-17T06:06:38.221Z,9.10
2023-03-17T06:07:50.881Z,8.40
2023-03-17T06:08:38.123Z,8.70
2023-03-17T06:09:38.035Z,8.60
2023-03-17T06:10:37.963Z,9.10
2023-03-17T06:11:37.931Z,9.00
2023-03-17T06:12:37.836Z,9.30
2023-03-17T06:13:37.798Z,9.00
2023-03-17T06:14:37.744Z,9.10
2023-03-17T06:15:37.719Z,8.60
2023-03-17T06:16:37.591Z,8.70
2023-03-17T06:17:37.547Z,9.40
2023-03-17T06:18:37.466Z,9.50
2023-03-17T06:19:37.397Z,9.30
2023-03-17T06:20:37.308Z,8.90
2023-03-17T06:21:58.243Z,9.20
2023-03-17T06:22:37.226Z,8.40
2023-03-17T06:23:37.125Z,8.50
2023-03-17T06:24:37.086Z,8.90
2023-03-17T06:25:37.077Z,9.50
2023-03-17T06:26:36.966Z,9.30
2023-03-17T06:27:36.889Z,9.20
2023-03-17T06:28:36.830Z,8.90
2023-03-17T06:29:36.744Z,9.70
2023-03-17T06:30:38.787Z,8.20
2023-03-17T06:31:36.685Z,8.60
2023-03-17T06:32:36.698Z,8.10
2023-03-17T06:33:36.564Z,8.50
2023-03-17T06:34:36.471Z,8.90
2023-03-17T06:35:36.424Z,8.90
2023-03-17T06:36:38.566Z,9.00
2023-03-17T06:37:36.300Z,8.90
2023-03-17T06:38:36.188Z,8.40
2023-03-17T06:39:36.179Z,8.70
2023-03-17T06:40:36.114Z,8.50
2023-03-17T06:41:36.099Z,8.60
2023-03-17T06:42:35.932Z,9.00
2023-03-17T06:43:35.872Z,8.50
2023-03-17T06:44:35.806Z,8.10
2023-03-17T06:45:35.818Z,8.40
2023-03-17T06:46:35.756Z,8.30
2023-03-17T06:47:35.702Z,8.20
2023-03-17T06:48:40.719Z,7.50
2023-03-17T06:49:37.735Z,8.20
2023-03-17T06:50:37.721Z,8.00
2023-03-17T06:51:38.279Z,6.90
2023-03-17T06:52:37.522Z,7.60
2023-03-17T06:53:35.289Z,7.70
2023-03-17T06:54:35.183Z,8.00
2023-03-17T06:55:35.153Z,7.70
2023-03-17T06:56:35.100Z,7.50
2023-03-17T06:57:35.062Z,7.20
2023-03-17T06:58:34.973Z,7.80
2023-03-17T06:59:34.886Z,7.40
2023-03-17T07:00:34.856Z,8.10
2023-03-17T07:01:34.920Z,8.80
2023-03-17T07:02:34.784Z,8.60
2023-03-17T07:03:36.216Z,8.00
2023-03-17T07:04:34.628Z,6.90
2023-03-17T07:05:34.532Z,6.50
2023-03-17T07:06:34.464Z,7.20
2023-03-17T07:07:34.384Z,7.00
2023-03-17T07:08:34.346Z,6.90
2023-03-17T07:09:34.331Z,7.80
2023-03-17T07:10:34.238Z,7.10
2023-03-17T07:11:34.185Z,7.60
2023-03-17T07:12:34.070Z,7.10
2023-03-17T07:13:34.058Z,7.20
2023-03-17T07:14:33.977Z,7.80
2023-03-17T07:15:55.534Z,7.00
2023-03-17T07:16:33.940Z,7.60
2023-03-17T07:17:33.763Z,7.80
2023-03-17T07:18:33.765Z,6.60
2023-03-17T07:19:33.630Z,7.30
2023-03-17T07:20:33.588Z,7.50
2023-03-17T07:21:33.567Z,7.10
2023-03-17T07:22:33.517Z,7.00
2023-03-17T07:23:33.405Z,6.90
2023-03-17T07:24:33.319Z,7.00
2023-03-17T07:25:33.656Z,7.10
2023-03-17T07:26:33.230Z,7.30
2023-03-17T07:27:33.182Z,7.80
2023-03-17T07:28:33.067Z,7.10
2023-03-17T07:29:33.061Z,7.10
2023-03-17T07:30:32.992Z,7.30
2023-03-17T07:31:32.921Z,7.40
2023-03-17T07:32:32.880Z,7.10
2023-03-17T07:34:41.941Z,6.80
2023-03-17T07:35:42.938Z,7.30
2023-03-17T07:36:42.852Z,7.60
2023-03-17T07:37:42.813Z,8.10
2023-03-17T07:38:42.733Z,6.70
2023-03-17T07:39:42.640Z,6.80
2023-03-17T07:40:42.626Z,7.90
2023-03-17T07:41:42.537Z,7.40
2023-03-17T07:42:42.530Z,8.70
2023-03-17T07:43:42.380Z,7.00
2023-03-17T07:44:42.353Z,7.00
2023-03-17T07:45:42.298Z,7.60
2023-03-17T07:46:42.270Z,6.90
2023-03-17T07:47:42.145Z,7.30
2023-03-17T07:48:42.209Z,8.30
2023-03-17T07:49:42.590Z,6.90
2023-03-17T07:50:41.940Z,7.30
2023-03-17T07:51:41.939Z,7.60
2023-03-17T07:52:41.882Z,7.30
2023-03-17T07:53:41.794Z,7.40
2023-03-17T07:54:43.123Z,6.80
2023-03-17T07:55:41.643Z,7.30
2023-03-17T07:56:41.633Z,7.20
2023-03-17T07:57:41.750Z,7.60
2023-03-17T07:58:41.436Z,7.00
2023-03-17T07:59:41.404Z,7.30
2023-03-17T08:00:41.362Z,7.50
2023-03-17T08:01:41.360Z,7.50
2023-03-17T08:02:41.309Z,6.10
2023-03-17T08:03:41.830Z,6.20
2023-03-17T08:04:41.095Z,6.50
2023-03-17T08:05:41.048Z,6.20
2023-03-17T08:06:40.975Z,6.30
2023-03-17T08:07:40.925Z,6.70
2023-03-17T08:08:40.819Z,6.80
2023-03-17T08:10:01.765Z,6.60
2023-03-17T08:10:40.757Z,6.50
2023-03-17T08:11:40.669Z,5.90
2023-03-17T08:12:40.608Z,6.00
2023-03-17T08:13:40.535Z,6.80
2023-03-17T08:14:40.505Z,6.20
2023-03-17T08:15:40.414Z,6.50
2023-03-17T08:16:40.398Z,7.30
2023-03-17T08:17:40.285Z,6.30
2023-03-17T08:18:40.247Z,5.90
2023-03-17T08:19:40.213Z,6.50
2023-03-17T08:20:40.093Z,6.10
2023-03-17T08:21:40.296Z,6.50
2023-03-17T08:22:39.974Z,5.70
2023-03-17T08:23:39.919Z,6.90
2023-03-17T08:24:39.853Z,6.70
2023-03-17T08:25:39.804Z,6.90
2023-03-17T08:26:39.813Z,6.70
2023-03-17T08:29:19.225Z,6.20
2023-03-17T08:30:20.922Z,6.80
2023-03-17T08:31:19.775Z,6.60
2023-03-17T08:32:19.707Z,6.50
2023-03-17T08:33:21.573Z,6.90
2023-03-17T08:34:20.599Z,6.60
2023-03-17T08:35:20.015Z,6.70
2023-03-17T08:36:20.935Z,6.90
2023-03-17T08:37:21.497Z,7.10
2023-03-17T08:38:19.901Z,7.40
2023-03-17T08:39:19.209Z,7.70
2023-03-17T08:40:19.179Z,6.90
2023-03-17T08:41:19.101Z,7.30
2023-03-17T08:42:19.120Z,7.20
2023-03-17T08:43:19.014Z,6.60
2023-03-17T08:44:18.930Z,7.10
2023-03-17T08:46:57.773Z,6.80
2023-03-17T08:47:58.695Z,7.10
2023-03-17T08:48:58.667Z,7.20
2023-03-17T08:49:58.582Z,7.60
2023-03-17T08:50:58.506Z,6.90
2023-03-17T08:51:58.426Z,6.60
2023-03-17T08:52:58.386Z,7.10
2023-03-17T08:53:58.359Z,7.00
2023-03-17T08:54:58.305Z,6.50
2023-03-17T08:55:58.188Z,6.40
2023-03-17T08:56:58.142Z,6.50
2023-03-17T08:57:58.102Z,6.70
2023-03-17T08:58:58.022Z,7.20
2023-03-17T08:59:57.975Z,6.10
2023-03-17T09:00:57.928Z,6.60
2023-03-17T09:01:57.818Z,6.70
2023-03-17T09:03:18.769Z,7.40
2023-03-17T09:03:57.720Z,5.90
2023-03-17T09:04:57.676Z,6.60
2023-03-17T09:05:57.622Z,6.40
2023-03-17T09:07:04.792Z,6.60
2023-03-17T09:07:57.488Z,6.80
2023-03-17T09:08:57.427Z,6.90
2023-03-17T09:09:57.341Z,6.40
2023-03-17T09:10:57.301Z,7.00
2023-03-17T09:11:57.200Z,6.60
2023-03-17T09:12:57.165Z,7.00
2023-03-17T09:13:57.093Z,6.90
2023-03-17T09:14:57.092Z,6.70
2023-03-17T09:15:57.013Z,7.10
2023-03-17T09:16:56.946Z,6.90
2023-03-17T09:17:56.825Z,6.80
2023-03-17T09:18:56.792Z,7.40
2023-03-17T09:19:56.728Z,6.70
2023-03-17T09:20:56.687Z,6.70
2023-03-17T09:21:56.604Z,6.50
2023-03-17T09:22:56.549Z,6.80
2023-03-17T09:23:56.454Z,6.90
2023-03-17T09:24:56.425Z,6.70
2023-03-17T09:25:56.330Z,6.60
2023-03-17T09:26:56.325Z,7.00
2023-03-17T09:27:56.261Z,6.70
2023-03-17T09:28:56.192Z,6.70
2023-03-17T09:29:56.122Z,6.40
2023-03-17T09:30:56.098Z,6.80
2023-03-17T09:31:56.022Z,6.70
2023-03-17T09:32:55.976Z,6.90
2023-03-17T09:33:55.862Z,6.60
2023-03-17T09:34:55.780Z,6.80
2023-03-17T09:35:55.765Z,6.70
2023-03-17T09:36:55.688Z,6.40
2023-03-17T09:37:55.640Z,6.70
2023-03-17T09:38:55.589Z,6.80
2023-03-17T09:39:55.538Z,7.20
2023-03-17T09:40:55.435Z,7.40
2023-03-17T09:41:55.376Z,6.70
2023-03-17T09:42:55.340Z,6.00
2023-03-17T09:43:55.261Z,7.00
2023-03-17T09:44:55.199Z,6.70
2023-03-17T09:45:55.130Z,7.10
2023-03-17T09:46:55.172Z,6.60
2023-03-17T09:47:55.006Z,6.80
2023-03-17T09:48:54.973Z,6.80
2023-03-17T09:49:54.882Z,6.80
2023-03-17T09:50:54.813Z,6.70
2023-03-17T09:51:54.765Z,6.50
2023-03-17T09:52:54.701Z,6.60
2023-03-17T09:53:54.646Z,6.30
2023-03-17T09:54:54.551Z,6.80
2023-03-17T09:55:54.517Z,6.20
2023-03-17T09:56:54.531Z,6.40
2023-03-17T09:57:54.401Z,6.20
2023-03-17T09:58:54.307Z,6.60
2023-03-17T09:59:54.298Z,6.50
2023-03-17T10:00:54.207Z,6.50
2023-03-17T10:01:54.146Z,6.20
2023-03-17T10:02:54.091Z,6.50
2023-03-17T10:03:54.928Z,6.10
2023-03-17T10:04:54.184Z,7.90
2023-03-17T10:05:53.902Z,7.60
2023-03-17T10:06:53.849Z,7.30
2023-03-17T10:07:53.793Z,7.60
2023-03-17T10:08:53.757Z,7.70
2023-03-17T10:09:53.833Z,6.90
2023-03-17T10:10:53.615Z,7.30
2023-03-17T10:11:53.508Z,7.20
2023-03-17T10:12:57.728Z,7.70
2023-03-17T10:13:56.727Z,7.10
2023-03-17T10:15:15.897Z,7.10
2023-03-17T10:15:53.320Z,6.70
2023-03-17T10:16:53.201Z,7.30
2023-03-17T10:17:53.208Z,7.20
2023-03-17T10:18:53.226Z,7.00
2023-03-17T10:19:53.026Z,6.80
2023-03-17T10:20:53.029Z,6.90
2023-03-17T10:21:52.928Z,7.10
2023-03-17T10:22:53.683Z,6.60
2023-03-17T10:23:52.791Z,6.70
2023-03-17T10:24:52.742Z,6.80
2023-03-17T10:25:52.823Z,7.20
2023-03-17T10:26:52.629Z,7.30
2023-03-17T10:27:52.590Z,7.40
2023-03-17T10:28:52.522Z,6.60
2023-03-17T10:29:52.469Z,7.10
2023-03-17T10:30:53.198Z,7.10
2023-03-17T10:31:52.428Z,7.10
2023-03-17T10:33:13.220Z,6.90
2023-03-17T10:33:52.172Z,6.70
2023-03-17T10:34:52.103Z,7.10
2023-03-17T10:35:53.274Z,6.50
2023-03-17T10:36:53.745Z,6.80
2023-03-17T10:38:08.050Z,6.70
2023-03-17T10:38:53.102Z,7.50
2023-03-17T10:39:53.384Z,6.60
2023-03-17T10:40:51.871Z,7.10
2023-03-17T10:41:51.738Z,7.10
2023-03-17T10:42:51.654Z,7.10
2023-03-17T10:43:51.807Z,6.60
2023-03-17T10:44:52.068Z,7.50
2023-03-17T10:45:51.480Z,6.70
2023-03-17T10:46:51.428Z,6.60
2023-03-17T10:47:51.330Z,7.10
2023-03-17T10:48:51.273Z,7.10
2023-03-17T10:49:51.214Z,7.10
2023-03-17T10:52:59.742Z,6.50
2023-03-17T10:54:00.680Z,6.50
2023-03-17T10:55:00.617Z,6.50
2023-03-17T10:56:00.560Z,7.00
2023-03-17T10:57:00.474Z,6.60
2023-03-17T10:58:00.437Z,6.70
2023-03-17T10:59:00.346Z,6.90
2023-03-17T11:00:00.305Z,6.50
2023-03-17T11:01:00.395Z,6.80
2023-03-17T11:02:00.178Z,6.90
2023-03-17T11:03:00.139Z,6.30
2023-03-17T11:04:00.171Z,6.60
2023-03-17T11:04:59.985Z,6.50
2023-03-17T11:05:59.956Z,6.70
2023-03-17T11:06:59.866Z,5.90
2023-03-17T11:07:59.816Z,6.70
2023-03-17T11:10:09.245Z,5.90
2023-03-17T11:11:10.031Z,6.50
2023-03-17T11:12:10.564Z,6.80
2023-03-17T11:13:10.407Z,6.30
2023-03-17T11:14:09.688Z,6.10
2023-03-17T11:15:09.631Z,6.10
2023-03-17T11:16:09.554Z,6.60
2023-03-17T11:17:09.505Z,5.80
2023-03-17T11:18:09.433Z,6.60
2023-03-17T11:19:10.412Z,6.20
2023-03-17T11:20:10.294Z,6.50
2023-03-17T11:21:12.084Z,5.50
2023-03-17T11:22:11.931Z,6.00
2023-03-17T11:23:11.907Z,6.30
2023-03-17T11:24:10.774Z,6.10
2023-03-17T11:25:08.969Z,5.90
2023-03-17T11:26:08.902Z,5.90
2023-03-17T11:28:19.292Z,5.90
2023-03-17T11:29:18.953Z,5.90
2023-03-17T11:30:18.930Z,5.80
2023-03-17T11:31:18.936Z,6.00
2023-03-17T11:32:18.808Z,5.90
2023-03-17T11:33:18.760Z,6.00
2023-03-17T11:34:18.703Z,5.90
2023-03-17T11:35:18.644Z,6.60
2023-03-17T11:36:18.563Z,5.80
2023-03-17T11:37:18.515Z,6.30
2023-03-17T11:38:18.403Z,5.80
2023-03-17T11:39:18.386Z,5.80
2023-03-17T11:40:18.326Z,5.60
2023-03-17T11:41:18.266Z,5.50
2023-03-17T11:42:18.199Z,6.00
2023-03-17T11:43:18.128Z,5.70
2023-03-17T11:44:18.036Z,6.10
2023-03-17T11:45:18.021Z,5.50
2023-03-17T11:46:18.028Z,6.20
2023-03-17T11:47:17.863Z,6.00
2023-03-17T11:48:17.798Z,6.30
2023-03-17T11:49:17.754Z,5.80
2023-03-17T11:50:17.712Z,5.70
2023-03-17T11:51:17.686Z,6.30
2023-03-17T11:52:17.602Z,5.80
2023-03-17T11:53:17.514Z,5.50
2023-03-17T11:54:17.480Z,5.90
2023-03-17T11:55:17.414Z,5.60
2023-03-17T11:56:17.302Z,5.60
2023-03-17T11:57:17.289Z,5.50
2023-03-17T11:58:17.229Z,6.40
2023-03-17T11:59:17.169Z,5.90
2023-03-17T12:00:17.081Z,5.90
2023-03-17T12:01:16.996Z,5.70
2023-03-17T12:02:16.970Z,5.90
2023-03-17T12:03:38.093Z,6.30
2023-03-17T12:04:16.963Z,5.90
2023-03-17T12:05:16.763Z,5.70
2023-03-17T12:06:16.728Z,5.70
2023-03-17T12:07:16.709Z,5.30
2023-03-17T12:08:16.593Z,6.10
2023-03-17T12:09:16.598Z,5.90
2023-03-17T12:10:16.955Z,6.10
2023-03-17T12:11:16.417Z,6.10
2023-03-17T12:12:16.445Z,5.80
2023-03-17T12:13:16.316Z,6.20
2023-03-17T12:14:16.252Z,5.90
2023-03-17T12:15:16.208Z,6.00
2023-03-17T12:16:16.196Z,6.10
2023-03-17T12:17:16.042Z,5.70
2023-03-17T12:18:15.955Z,5.30
2023-03-17T12:19:15.935Z,6.00
2023-03-17T12:20:15.886Z,5.60
2023-03-17T12:21:15.829Z,6.40
2023-03-17T12:22:15.764Z,5.70
2023-03-17T12:23:15.652Z,5.40
2023-03-17T12:24:15.611Z,5.50
2023-03-17T12:25:15.536Z,5.90
2023-03-17T12:26:15.490Z,5.40
2023-03-17T12:27:15.451Z,6.00
2023-03-17T12:28:15.366Z,5.80
2023-03-17T12:29:15.325Z,5.60
2023-03-17T12:30:15.303Z,5.80
2023-03-17T12:31:15.297Z,5.70
2023-03-17T12:32:15.094Z,5.00
2023-03-17T12:33:15.056Z,4.70
2023-03-17T12:34:14.975Z,5.00
2023-03-17T12:35:14.977Z,5.00
2023-03-17T12:36:14.956Z,4.50
2023-03-17T12:37:14.822Z,4.50
2023-03-17T12:38:14.783Z,4.60
2023-03-17T12:39:35.706Z,4.60
2023-03-17T12:40:14.635Z,4.20
2023-03-17T12:41:14.626Z,4.60
2023-03-17T12:42:14.497Z,4.50
2023-03-17T12:43:14.541Z,4.30
2023-03-17T12:44:14.402Z,4.50
2023-03-17T12:45:14.380Z,4.90
2023-03-17T12:46:14.365Z,4.30
2023-03-17T12:47:14.194Z,4.30
2023-03-17T12:48:14.176Z,4.70
2023-03-17T12:49:14.090Z,4.40
2023-03-17T12:50:14.070Z,4.70
2023-03-17T12:51:13.951Z,4.40
2023-03-17T12:52:13.890Z,4.60
2023-03-17T12:53:13.818Z,4.90
2023-03-17T12:54:13.758Z,4.60
2023-03-17T12:55:13.756Z,4.50
2023-03-17T12:56:13.677Z,4.70
2023-03-17T12:57:34.564Z,4.50
2023-03-17T12:58:13.561Z,4.60
2023-03-17T12:59:13.475Z,4.60
2023-03-17T13:00:13.414Z,4.70
2023-03-17T13:01:13.415Z,4.80
2023-03-17T13:02:13.268Z,4.60
2023-03-17T13:03:13.366Z,4.90
2023-03-17T13:04:13.168Z,4.60
2023-03-17T13:05:13.110Z,4.30
2023-03-17T13:06:13.048Z,4.40
2023-03-17T13:07:12.966Z,4.60
2023-03-17T13:08:12.910Z,4.10
2023-03-17T13:09:12.924Z,4.80
2023-03-17T13:10:12.813Z,4.90
2023-03-17T13:11:12.750Z,4.70
2023-03-17T13:12:12.721Z,4.40
2023-03-17T13:13:12.596Z,4.60
2023-03-17T13:14:12.560Z,4.80
2023-03-17T13:15:12.489Z,4.30
2023-03-17T13:16:12.494Z,4.80
2023-03-17T13:17:12.380Z,4.50
2023-03-17T13:18:12.316Z,4.20
2023-03-17T13:19:12.288Z,4.70
2023-03-17T13:20:12.305Z,4.10
2023-03-17T13:21:12.372Z,4.10
2023-03-17T13:22:12.096Z,4.20
2023-03-17T13:23:12.008Z,4.50
2023-03-17T13:24:11.925Z,4.20
2023-03-17T13:25:11.864Z,4.20
2023-03-17T13:26:11.826Z,4.60
2023-03-17T13:27:11.791Z,4.80
2023-03-17T13:28:11.720Z,3.80